Time;durP1;ratioP1;P1;durP2;ratioP2;P2;SDS_P1;SDS_P2;PMS_P1;PMS_P2;Temp;Humidity;BMP_temperature;BMP_pressure;BME280_temperature;BME280_humidity;BME280_pressure;Samples;Min_cycle;Max_cycle;Signal;HPM_P1;HPM_P2
2024/03/16 00:02:14;;;;;;;113.50;99.35;;;12.50;85.90;;;;;;4955112;28;114768;-50
2024/03/16 00:04:42;;;;;;;116.57;100.68;;;12.50;86.00;;;;;;4964437;28;113776;-50
2024/03/16 00:07:09;;;;;;;119.10;103.82;;;12.50;86.10;;;;;;4959188;28;112617;-50
2024/03/16 00:09:34;;;;;;;116.53;101.28;;;12.50;86.10;;;;;;4949816;28;113047;-53
2024/03/16 00:12:00;;;;;;;116.53;99.60;;;12.60;86.00;;;;;;4955430;28;113844;-51
2024/03/16 00:14:26;;;;;;;109.47;96.05;;;12.70;85.80;;;;;;4957949;28;114207;-50
2024/03/16 00:16:51;;;;;;;111.20;96.82;;;12.60;85.80;;;;;;4957230;28;112984;-50
2024/03/16 00:19:18;;;;;;;112.10;96.57;;;12.60;85.70;;;;;;4957845;28;112801;-50
2024/03/16 00:21:44;;;;;;;115.60;98.70;;;12.60;85.80;;;;;;4956520;28;114398;-50
2024/03/16 00:24:10;;;;;;;116.07;99.88;;;12.50;86.00;;;;;;4958904;28;112948;-51
2024/03/16 00:26:36;;;;;;;121.00;100.80;;;12.60;86.00;;;;;;4955541;28;112891;-50
2024/03/16 00:29:07;;;;;;;120.43;104.88;;;12.70;85.90;;;;;;4954852;28;112870;-51
2024/03/16 00:31:36;;;;;;;116.05;97.65;;;12.50;86.00;;;;;;4950276;28;114974;-50
2024/03/16 00:34:03;;;;;;;118.90;99.32;;;12.60;86.00;;;;;;4963417;28;114193;-50
2024/03/16 00:36:32;;;;;;;119.15;101.45;;;12.70;85.90;;;;;;4969274;28;112638;-51
2024/03/16 00:38:58;;;;;;;121.55;104.25;;;12.60;86.00;;;;;;4955020;28;112716;-50
2024/03/16 00:41:24;;;;;;;119.97;102.30;;;12.60;86.00;;;;;;4967302;28;113331;-51
2024/03/16 00:43:50;;;;;;;121.50;101.90;;;12.60;86.10;;;;;;4967013;28;112670;-51
2024/03/16 00:46:15;;;;;;;111.20;97.40;;;12.70;85.80;;;;;;4968067;28;114489;-51
2024/03/16 00:48:41;;;;;;;119.15;97.30;;;12.70;85.80;;;;;;4969602;28;112736;-50
2024/03/16 00:51:07;;;;;;;113.72;99.30;;;12.70;85.60;;;;;;4967889;28;113889;-50
2024/03/16 00:53:33;;;;;;;110.68;98.18;;;12.70;85.80;;;;;;4967958;28;114208;-51
2024/03/16 00:55:59;;;;;;;110.32;94.63;;;12.70;85.60;;;;;;4968855;28;112892;-51
2024/03/16 00:58:25;;;;;;;111.55;97.30;;;12.80;85.70;;;;;;4969099;28;112749;-50
2024/03/16 01:00:51;;;;;;;112.60;97.90;;;12.80;85.70;;;;;;4966659;28;114488;-51
2024/03/16 01:03:17;;;;;;;110.38;95.60;;;12.70;85.70;;;;;;4967271;28;113088;-51
2024/03/16 01:05:43;;;;;;;116.28;100.03;;;12.70;85.70;;;;;;4968732;28;112710;-50
2024/03/16 01:08:09;;;;;;;114.80;99.22;;;12.70;86.00;;;;;;4967400;28;112829;-51
2024/03/16 01:10:35;;;;;;;119.70;102.38;;;12.80;85.60;;;;;;4967647;28;113687;-51
2024/03/16 01:13:01;;;;;;;117.47;100.15;;;12.80;85.60;;;;;;4966476;28;113680;-50
2024/03/16 01:15:26;;;;;;;106.60;94.55;;;12.70;85.70;;;;;;4968091;28;113301;-50
2024/03/16 01:17:52;;;;;;;115.35;96.32;;;12.70;85.70;;;;;;4968632;28;112986;-50
2024/03/16 01:20:18;;;;;;;110.70;96.95;;;12.80;85.70;;;;;;4967475;28;113296;-52
2024/03/16 01:22:43;;;;;;;105.22;93.55;;;12.80;85.70;;;;;;4966731;28;112977;-52
2024/03/16 01:25:09;;;;;;;105.65;91.47;;;12.70;85.70;;;;;;4968691;28;113077;-52
2024/03/16 01:27:35;;;;;;;103.97;90.80;;;12.60;85.80;;;;;;4968512;28;112946;-50
2024/03/16 01:30:02;;;;;;;109.13;95.47;;;12.70;85.90;;;;;;4967484;28;113364;-51
2024/03/16 01:32:28;;;;;;;109.10;94.63;;;12.80;85.70;;;;;;4959670;28;112925;-53
2024/03/16 01:34:53;;;;;;;108.32;95.47;;;12.70;85.80;;;;;;4964621;28;112688;-50
2024/03/16 01:37:20;;;;;;;107.55;95.65;;;12.60;86.00;;;;;;4968530;28;112916;-50
2024/03/16 01:39:45;;;;;;;112.95;97.82;;;12.60;86.10;;;;;;4967525;28;113478;-50
2024/03/16 01:42:12;;;;;;;115.13;99.28;;;12.60;86.20;;;;;;4967242;28;113062;-51
2024/03/16 01:44:38;;;;;;;117.30;101.00;;;12.50;86.30;;;;;;4968351;28;112673;-51
2024/03/16 01:47:09;;;;;;;114.55;97.55;;;12.50;86.40;;;;;;4967536;28;112744;-50
2024/03/16 01:49:35;;;;;;;109.47;97.03;;;12.50;86.30;;;;;;4967690;28;113567;-50
2024/03/16 01:52:03;;;;;;;110.32;97.65;;;12.60;86.10;;;;;;4966985;28;113808;-50
2024/03/16 01:54:30;;;;;;;113.93;100.10;;;12.50;86.20;;;;;;4953550;28;113076;-50
2024/03/16 01:56:56;;;;;;;112.32;99.07;;;12.50;86.10;;;;;;4966586;28;113012;-50
2024/03/16 01:59:22;;;;;;;110.88;96.63;;;12.60;86.30;;;;;;4965807;28;114749;-50
2024/03/16 02:01:47;;;;;;;113.75;99.88;;;12.60;86.10;;;;;;4967242;28;113790;-51
2024/03/16 02:04:13;;;;;;;112.13;98.03;;;12.60;86.10;;;;;;4966698;28;112663;-52
2024/03/16 02:06:39;;;;;;;111.15;98.00;;;12.60;86.10;;;;;;4968072;28;112702;-50
2024/03/16 02:09:06;;;;;;;113.38;97.97;;;12.70;86.00;;;;;;4957892;28;113652;-50
2024/03/16 02:11:32;;;;;;;117.10;100.28;;;12.70;85.90;;;;;;4952803;28;113746;-51
2024/03/16 02:13:57;;;;;;;115.05;101.38;;;12.60;85.90;;;;;;4959963;28;112820;-50
2024/03/16 02:16:23;;;;;;;111.60;99.15;;;12.70;86.00;;;;;;4965669;28;112768;-50
2024/03/16 02:18:48;;;;;;;110.03;97.07;;;12.70;85.80;;;;;;4953549;28;113276;-50
2024/03/16 02:21:14;;;;;;;107.57;95.00;;;12.60;86.00;;;;;;4966662;28;113295;-52
2024/03/16 02:23:40;;;;;;;108.68;94.15;;;12.60;86.00;;;;;;4968192;28;112489;-51
2024/03/16 02:26:07;;;;;;;112.35;95.68;;;12.60;86.00;;;;;;4963343;28;112749;-51
2024/03/16 02:28:33;;;;;;;111.57;99.25;;;12.60;86.20;;;;;;4962202;28;113762;-50
2024/03/16 02:30:58;;;;;;;110.55;97.78;;;12.60;86.30;;;;;;4966322;28;113705;-50
2024/03/16 02:33:27;;;;;;;110.22;97.95;;;12.50;86.30;;;;;;4968103;28;112967;-50
2024/03/16 02:35:53;;;;;;;110.03;97.60;;;12.60;86.30;;;;;;4967358;28;113151;-50
2024/03/16 02:38:19;;;;;;;111.63;99.32;;;12.60;86.30;;;;;;4966690;28;113339;-51
2024/03/16 02:40:44;;;;;;;108.78;96.95;;;12.60;86.20;;;;;;4966770;28;112645;-51
2024/03/16 02:43:10;;;;;;;111.13;96.28;;;12.60;86.40;;;;;;4963031;28;112919;-50
2024/03/16 02:45:36;;;;;;;111.90;96.35;;;12.60;86.20;;;;;;4958937;28;113255;-51
2024/03/16 02:48:05;;;;;;;109.60;96.03;;;12.60;86.20;;;;;;4967127;28;113208;-51
2024/03/16 02:50:30;;;;;;;104.40;92.95;;;12.60;86.20;;;;;;4966370;28;112955;-51
2024/03/16 02:52:56;;;;;;;103.90;90.60;;;12.60;86.10;;;;;;4967331;28;112621;-50
2024/03/16 02:55:22;;;;;;;105.00;92.10;;;12.60;86.30;;;;;;4967527;28;112672;-50
2024/03/16 02:57:48;;;;;;;106.57;93.72;;;12.40;86.50;;;;;;4966149;28;113384;-50
2024/03/16 03:00:16;;;;;;;103.15;91.82;;;12.50;86.40;;;;;;4965331;28;113399;-50
2024/03/16 03:02:42;;;;;;;104.65;93.30;;;12.50;86.30;;;;;;4961372;28;112534;-50
2024/03/16 03:05:10;;;;;;;103.45;91.72;;;12.40;86.50;;;;;;4967436;28;113159;-50
2024/03/16 03:07:38;;;;;;;103.90;92.68;;;12.30;86.80;;;;;;4966441;28;113187;-50
2024/03/16 03:10:06;;;;;;;104.20;92.80;;;12.40;86.90;;;;;;4962400;28;113268;-50
2024/03/16 03:12:32;;;;;;;103.22;91.88;;;12.40;86.60;;;;;;4968569;28;112693;-51
2024/03/16 03:14:58;;;;;;;105.82;93.82;;;12.50;86.50;;;;;;4970811;28;112950;-50
2024/03/16 03:17:25;;;;;;;118.65;103.10;;;12.50;86.50;;;;;;4969655;28;113303;-50
2024/03/16 03:19:50;;;;;;;115.43;99.32;;;12.50;86.40;;;;;;4968420;28;113657;-51
2024/03/16 03:22:16;;;;;;;106.38;94.70;;;12.50;86.40;;;;;;4970364;28;112551;-51
2024/03/16 03:24:42;;;;;;;109.55;94.28;;;12.50;86.30;;;;;;4970591;28;113218;-51
2024/03/16 03:27:07;;;;;;;103.75;92.68;;;12.50;86.20;;;;;;4969355;28;113278;-50
2024/03/16 03:29:33;;;;;;;102.35;91.38;;;12.50;86.40;;;;;;4969300;28;112674;-50
2024/03/16 03:31:59;;;;;;;101.72;90.65;;;12.50;86.20;;;;;;4970307;28;112691;-52
2024/03/16 03:34:25;;;;;;;107.53;94.93;;;12.50;86.20;;;;;;4970844;28;114506;-51
2024/03/16 03:36:50;;;;;;;108.43;96.25;;;12.40;86.20;;;;;;4969758;28;113492;-51
2024/03/16 03:39:16;;;;;;;107.13;93.60;;;12.40;86.40;;;;;;4969497;28;113099;-50
2024/03/16 03:41:42;;;;;;;107.65;95.95;;;12.40;86.60;;;;;;4969985;28;112852;-50
2024/03/16 03:44:21;;;;;;;113.57;96.38;;;12.40;86.60;;;;;;4965706;28;113708;-51
2024/03/16 03:46:54;;;;;;;102.35;91.18;;;12.40;86.70;;;;;;4969506;28;114387;-51
2024/03/16 03:49:28;;;;;;;102.30;89.65;;;12.40;86.50;;;;;;4969619;28;113790;-55
2024/03/16 03:51:54;;;;;;;98.32;87.53;;;12.40;86.50;;;;;;4970220;28;112695;-51
2024/03/16 03:54:19;;;;;;;100.15;88.20;;;12.40;86.60;;;;;;4969835;28;112895;-50
2024/03/16 03:56:45;;;;;;;98.00;85.88;;;12.40;86.50;;;;;;4969373;28;113289;-50
2024/03/16 03:59:11;;;;;;;98.15;83.50;;;12.40;86.70;;;;;;4968618;28;113119;-50
2024/03/16 04:01:37;;;;;;;101.82;87.43;;;12.40;86.60;;;;;;4969845;28;112760;-50
2024/03/16 04:04:04;;;;;;;104.03;89.90;;;12.40;86.70;;;;;;4968733;28;112815;-50
2024/03/16 04:06:30;;;;;;;98.43;85.95;;;12.40;86.60;;;;;;4968812;28;113476;-50
2024/03/16 04:08:57;;;;;;;98.30;87.28;;;12.40;86.60;;;;;;4969000;28;112616;-50
2024/03/16 04:11:22;;;;;;;102.00;88.28;;;12.40;86.60;;;;;;4969700;28;112575;-51
2024/03/16 04:13:48;;;;;;;103.28;87.80;;;12.30;86.60;;;;;;4969831;28;112842;-50
2024/03/16 04:16:14;;;;;;;105.00;89.38;;;12.40;86.60;;;;;;4968983;28;113918;-50
2024/03/16 04:18:40;;;;;;;102.85;87.00;;;12.40;86.50;;;;;;4964565;28;113755;-51
2024/03/16 04:21:07;;;;;;;97.47;83.53;;;12.40;86.60;;;;;;4969859;28;113472;-50
2024/03/16 04:23:33;;;;;;;91.82;79.70;;;12.40;86.80;;;;;;4968607;28;112727;-51
2024/03/16 04:25:59;;;;;;;90.70;79.32;;;12.40;86.60;;;;;;4955601;28;113735;-50
2024/03/16 04:28:24;;;;;;;89.85;76.80;;;12.40;86.90;;;;;;4968321;28;113681;-50
2024/03/16 04:30:51;;;;;;;90.97;76.90;;;12.40;86.80;;;;;;4969412;28;112709;-50
2024/03/16 04:33:17;;;;;;;86.78;75.07;;;12.40;86.70;;;;;;4969661;28;112700;-50
2024/03/16 04:35:45;;;;;;;81.25;71.82;;;12.40;86.70;;;;;;4968395;28;114100;-51
2024/03/16 04:38:11;;;;;;;85.53;73.75;;;12.40;86.60;;;;;;4968372;28;113241;-50
2024/03/16 04:40:37;;;;;;;81.82;70.97;;;12.40;86.60;;;;;;4969357;28;113037;-50
2024/03/16 04:43:03;;;;;;;78.90;68.57;;;12.40;86.60;;;;;;4969508;28;112747;-50
2024/03/16 04:45:28;;;;;;;79.10;68.18;;;12.40;86.60;;;;;;4968396;28;113457;-50
2024/03/16 04:47:54;;;;;;;78.72;68.68;;;12.40;86.40;;;;;;4968083;28;112896;-51
2024/03/16 04:50:19;;;;;;;75.72;66.70;;;12.40;86.50;;;;;;4969895;28;113044;-52
2024/03/16 04:52:45;;;;;;;76.38;67.10;;;12.30;86.90;;;;;;4969167;28;113105;-50
2024/03/16 04:55:11;;;;;;;77.07;66.97;;;12.30;87.00;;;;;;4967740;28;115261;-51
2024/03/16 04:57:36;;;;;;;77.57;67.75;;;12.40;87.00;;;;;;4968160;28;113711;-51
2024/03/16 05:00:02;;;;;;;76.32;67.95;;;12.30;86.80;;;;;;4968448;28;113351;-51
2024/03/16 05:02:30;;;;;;;81.20;72.38;;;12.40;86.90;;;;;;4968754;28;113249;-51
2024/03/16 05:04:56;;;;;;;78.85;70.13;;;12.30;86.80;;;;;;4968289;28;113227;-51
2024/03/16 05:07:21;;;;;;;74.70;66.75;;;12.30;86.80;;;;;;4967751;28;114473;-51
2024/03/16 05:09:47;;;;;;;77.20;69.05;;;12.40;86.70;;;;;;4968862;28;112905;-50
2024/03/16 05:12:13;;;;;;;75.85;67.97;;;12.40;86.60;;;;;;4968377;28;112735;-51
2024/03/16 05:14:39;;;;;;;75.28;67.28;;;12.30;86.70;;;;;;4967580;28;114392;-50
2024/03/16 05:17:04;;;;;;;74.22;66.30;;;12.30;86.90;;;;;;4964929;28;112692;-53
2024/03/16 05:19:30;;;;;;;74.05;66.03;;;12.30;86.70;;;;;;4957800;28;112954;-51
2024/03/16 05:21:56;;;;;;;76.00;67.85;;;12.30;86.90;;;;;;4968880;28;112646;-51
2024/03/16 05:24:21;;;;;;;73.43;65.53;;;12.30;86.90;;;;;;4967989;28;113136;-50
2024/03/16 05:26:48;;;;;;;75.80;67.72;;;12.30;87.00;;;;;;4967715;28;113252;-51
2024/03/16 05:29:14;;;;;;;76.30;68.38;;;12.30;87.00;;;;;;4968426;28;112597;-51
2024/03/16 05:32:01;;;;;;;82.15;73.50;;;12.20;87.10;;;;;;4968363;28;112754;-52
2024/03/16 05:34:27;;;;;;;76.38;68.60;;;12.30;87.10;;;;;;4966466;28;113190;-50
2024/03/16 05:36:52;;;;;;;75.45;67.53;;;12.30;86.90;;;;;;4967604;28;112847;-50
2024/03/16 05:39:19;;;;;;;77.93;69.88;;;12.30;87.00;;;;;;4968497;28;112622;-50
2024/03/16 05:41:44;;;;;;;80.85;72.30;;;12.30;86.90;;;;;;4968439;28;112771;-52
2024/03/16 05:44:10;;;;;;;79.70;71.43;;;12.30;86.80;;;;;;4967180;28;113437;-51
2024/03/16 05:46:36;;;;;;;77.60;69.68;;;12.40;86.70;;;;;;4967658;28;112646;-51
2024/03/16 05:49:01;;;;;;;78.05;69.88;;;12.40;86.70;;;;;;4968875;28;112622;-50
2024/03/16 05:51:28;;;;;;;76.70;68.57;;;12.40;86.70;;;;;;4967752;28;113137;-50
2024/03/16 05:53:54;;;;;;;77.78;69.43;;;12.40;86.40;;;;;;4967179;28;115497;-54
2024/03/16 05:56:21;;;;;;;73.57;65.68;;;12.40;86.40;;;;;;4967307;28;113736;-51
2024/03/16 05:58:47;;;;;;;74.43;66.78;;;12.40;86.70;;;;;;4968131;28;112881;-50
2024/03/16 06:01:13;;;;;;;74.85;67.00;;;12.40;86.50;;;;;;4967754;28;112727;-51
2024/03/16 06:03:39;;;;;;;72.40;64.78;;;12.30;87.00;;;;;;4966986;28;114755;-51
2024/03/16 06:06:05;;;;;;;76.80;68.45;;;12.30;86.80;;;;;;4967205;28;112589;-52
2024/03/16 06:08:31;;;;;;;72.80;65.30;;;12.30;87.00;;;;;;4968049;28;112686;-50
2024/03/16 06:10:57;;;;;;;75.63;67.68;;;12.30;87.00;;;;;;4968089;28;112715;-50
2024/03/16 06:13:23;;;;;;;74.70;66.82;;;12.30;87.00;;;;;;4966778;28;113617;-51
2024/03/16 06:15:49;;;;;;;70.80;63.42;;;12.40;86.80;;;;;;4966946;28;113501;-53
2024/03/16 06:18:14;;;;;;;71.35;64.07;;;12.40;86.70;;;;;;4966110;28;113083;-50
2024/03/16 06:20:40;;;;;;;69.25;62.15;;;12.40;87.10;;;;;;4968121;28;112833;-51
2024/03/16 06:23:06;;;;;;;68.82;61.67;;;12.40;86.90;;;;;;4967099;28;113196;-51
2024/03/16 06:25:39;;;;;;;71.03;63.38;;;12.40;87.00;;;;;;4966311;28;114167;-51
2024/03/16 06:28:06;;;;;;;67.55;60.42;;;12.50;86.90;;;;;;4967425;28;113953;-51
2024/03/16 06:30:31;;;;;;;69.68;62.15;;;12.60;86.60;;;;;;4967527;28;112743;-50
2024/03/16 06:33:09;;;;;;;71.50;64.10;;;12.60;86.60;;;;;;4966623;28;114543;-50
2024/03/16 06:35:41;;;;;;;69.07;62.08;;;12.60;86.40;;;;;;4966497;28;113766;-50
2024/03/16 06:38:07;;;;;;;;;;;12.70;86.30;;;;;;4968249;28;113179;-50
2024/03/16 06:40:32;;;;;;;66.00;59.08;;;12.80;85.80;;;;;;4969715;28;112789;-51
2024/03/16 06:42:58;;;;;;;62.80;56.47;;;12.80;85.70;;;;;;4966704;28;113259;-51
2024/03/16 06:45:24;;;;;;;60.78;54.78;;;12.80;85.60;;;;;;4966233;28;112590;-52
2024/03/16 06:47:49;;;;;;;60.05;53.85;;;12.70;85.80;;;;;;4967764;28;112856;-50
2024/03/16 06:50:15;;;;;;;62.38;55.78;;;12.60;86.00;;;;;;4968276;28;112719;-50
2024/03/16 06:52:41;;;;;;;59.17;53.30;;;12.80;85.90;;;;;;4966611;28;113515;-50
2024/03/16 06:55:06;;;;;;;60.72;54.55;;;12.90;85.40;;;;;;4965939;28;113424;-51
2024/03/16 06:57:33;;;;;;;60.47;54.45;;;13.00;85.10;;;;;;4967866;28;112644;-52
2024/03/16 06:59:59;;;;;;;58.50;52.75;;;13.10;84.80;;;;;;4955893;28;112980;-51
2024/03/16 07:02:24;;;;;;;59.05;53.30;;;13.10;84.60;;;;;;4966392;28;113719;-50
2024/03/16 07:04:50;;;;;;;58.30;52.38;;;13.10;84.70;;;;;;4966493;28;112897;-51
2024/03/16 07:07:16;;;;;;;57.67;51.70;;;13.10;84.50;;;;;;4967765;28;112802;-50
2024/03/16 07:09:41;;;;;;;56.33;50.72;;;13.20;85.00;;;;;;4967314;28;113026;-50
2024/03/16 07:12:07;;;;;;;56.45;50.67;;;13.30;84.50;;;;;;4966624;28;114339;-53
2024/03/16 07:14:33;;;;;;;55.05;49.45;;;13.40;84.10;;;;;;4965857;28;112686;-51
2024/03/16 07:16:58;;;;;;;56.25;50.33;;;13.50;84.20;;;;;;4961441;28;112596;-50
2024/03/16 07:19:24;;;;;;;53.35;47.65;;;13.70;83.80;;;;;;4955513;28;112776;-50
2024/03/16 07:21:51;;;;;;;50.72;45.65;;;13.80;83.10;;;;;;4965055;28;114651;-51
2024/03/16 07:24:16;;;;;;;51.85;46.70;;;13.80;83.40;;;;;;4952662;28;113841;-51
2024/03/16 07:26:43;;;;;;;51.63;46.30;;;13.90;83.30;;;;;;4965881;28;112651;-51
2024/03/16 07:29:08;;;;;;;52.78;47.25;;;13.80;83.50;;;;;;4966895;28;114551;-50
2024/03/16 07:31:34;;;;;;;51.67;46.17;;;13.80;83.70;;;;;;4957047;28;113699;-51
2024/03/16 07:34:00;;;;;;;53.97;47.72;;;13.80;83.10;;;;;;4948019;28;112642;-53
2024/03/16 07:36:26;;;;;;;54.22;48.42;;;13.70;83.60;;;;;;4963352;28;112532;-50
2024/03/16 07:38:53;;;;;;;53.67;46.70;;;13.80;83.30;;;;;;4953242;28;112756;-50
2024/03/16 07:41:19;;;;;;;55.65;48.75;;;13.80;83.40;;;;;;4951505;28;113811;-50
2024/03/16 07:43:44;;;;;;;50.05;44.72;;;13.80;83.00;;;;;;4962311;28;113000;-51
2024/03/16 07:46:10;;;;;;;51.60;45.95;;;13.80;83.10;;;;;;4959512;28;112667;-51
2024/03/16 07:48:36;;;;;;;51.35;45.78;;;13.90;82.70;;;;;;4957509;28;113601;-53
2024/03/16 07:51:04;;;;;;;51.33;45.75;;;14.00;82.30;;;;;;4946340;28;113307;-50
2024/03/16 07:53:33;;;;;;;51.05;45.53;;;14.10;82.20;;;;;;4955462;28;112679;-51
2024/03/16 07:55:59;;;;;;;53.15;47.65;;;14.10;82.40;;;;;;4954021;28;112542;-50
2024/03/16 07:58:25;;;;;;;51.88;46.47;;;14.20;82.30;;;;;;4955959;28;112977;-50
2024/03/16 08:00:51;;;;;;;49.53;44.33;;;14.30;81.90;;;;;;4960192;28;113292;-50
2024/03/16 08:03:17;;;;;;;49.92;44.33;;;14.30;82.00;;;;;;4957658;28;112931;-50
2024/03/16 08:05:43;;;;;;;50.10;44.85;;;14.40;81.50;;;;;;4955811;28;112665;-51
2024/03/16 08:08:09;;;;;;;48.15;43.00;;;14.40;81.30;;;;;;4953205;28;112676;-50
2024/03/16 08:10:35;;;;;;;50.25;44.83;;;14.50;81.10;;;;;;4954687;28;114490;-52
2024/03/16 08:13:00;;;;;;;46.75;41.80;;;14.60;81.00;;;;;;4950848;28;113615;-51
2024/03/16 08:15:26;;;;;;;48.25;43.05;;;14.60;80.20;;;;;;4966588;28;112765;-51
2024/03/16 08:17:54;;;;;;;45.53;40.63;;;14.80;79.40;;;;;;4959177;28;112666;-50
2024/03/16 08:20:20;;;;;;;47.42;42.33;;;14.60;79.80;;;;;;4965070;28;114631;-50
2024/03/16 08:22:48;;;;;;;47.50;42.50;;;14.70;79.30;;;;;;4968820;28;112954;-51
2024/03/16 08:25:14;;;;;;;45.95;41.17;;;14.50;79.30;;;;;;4969873;28;112753;-51
2024/03/16 08:27:40;;;;;;;47.85;42.58;;;14.50;79.80;;;;;;4955496;28;112674;-51
2024/03/16 08:30:07;;;;;;;51.15;41.92;;;14.80;79.60;;;;;;4967105;28;113325;-50
2024/03/16 08:32:33;;;;;;;44.97;40.17;;;14.80;79.10;;;;;;4968005;28;112853;-50
2024/03/16 08:34:58;;;;;;;46.83;41.72;;;14.80;79.10;;;;;;4969918;28;112670;-51
2024/03/16 08:37:24;;;;;;;48.72;41.13;;;14.70;79.20;;;;;;4969586;28;112752;-51
2024/03/16 08:39:50;;;;;;;49.55;43.38;;;14.80;78.80;;;;;;4968667;28;113205;-51
2024/03/16 08:42:15;;;;;;;47.35;42.20;;;15.10;78.80;;;;;;4967984;28;113720;-50
2024/03/16 08:44:41;;;;;;;42.30;37.55;;;15.30;78.10;;;;;;4969412;28;112975;-53
2024/03/16 08:47:07;;;;;;;41.28;36.75;;;15.40;77.30;;;;;;4969190;28;112719;-50
2024/03/16 08:49:34;;;;;;;39.35;35.08;;;15.30;76.50;;;;;;4955333;28;113228;-52
2024/03/16 08:52:00;;;;;;;39.03;34.85;;;15.40;76.30;;;;;;4960191;28;112874;-51
2024/03/16 08:54:26;;;;;;;39.38;35.28;;;15.60;74.90;;;;;;4962678;28;112901;-51
2024/03/16 08:56:52;;;;;;;37.33;33.33;;;15.80;75.00;;;;;;4963568;28;112743;-53
2024/03/16 08:59:18;;;;;;;39.53;34.05;;;15.70;74.40;;;;;;4963881;28;113275;-52
2024/03/16 09:01:44;;;;;;;37.67;33.58;;;16.00;73.80;;;;;;4958930;28;113995;-51
2024/03/16 09:04:12;;;;;;;36.08;32.38;;;16.40;72.80;;;;;;4967429;28;112940;-52
2024/03/16 09:06:40;;;;;;;40.30;34.40;;;16.50;71.50;;;;;;4952968;28;112657;-52
2024/03/16 09:09:10;;;;;;;35.90;32.13;;;16.70;71.00;;;;;;4953832;28;113651;-51
2024/03/16 09:11:38;;;;;;;35.65;31.92;;;17.10;70.20;;;;;;4961982;28;113076;-52
2024/03/16 09:14:07;;;;;;;34.63;30.83;;;17.30;69.30;;;;;;4957553;28;112602;-54
2024/03/16 09:16:40;;;;;;;36.08;32.30;;;16.80;70.00;;;;;;4952907;28;113057;-53
2024/03/16 09:19:08;;;;;;;34.85;31.20;;;16.30;71.70;;;;;;4953751;28;115050;-52
2024/03/16 09:21:34;;;;;;;33.90;30.45;;;15.90;71.20;;;;;;4959750;28;112760;-51
2024/03/16 09:24:00;;;;;;;32.05;28.90;;;15.80;72.00;;;;;;4952946;28;113014;-52
2024/03/16 09:26:25;;;;;;;27.90;25.13;;;15.90;71.70;;;;;;4954148;28;112738;-51
2024/03/16 09:46:53;;;;;;;30.17;26.95;;;16.80;69.40;;;;;;4990295;28;112838;-53
2024/03/16 09:49:20;;;;;;;29.67;26.60;;;17.40;66.30;;;;;;4931409;28;112610;-52
2024/03/16 09:51:46;;;;;;;29.42;26.40;;;17.00;67.30;;;;;;4925963;28;112758;-52
2024/03/16 09:54:12;;;;;;;30.05;27.05;;;16.90;66.90;;;;;;4924410;28;113228;-52
2024/03/16 09:56:38;;;;;;;28.23;25.20;;;16.90;67.70;;;;;;4938783;28;112612;-51
2024/03/16 09:59:17;;;;;;;26.98;23.90;;;16.90;66.70;;;;;;4932934;28;112771;-51
2024/03/16 10:01:43;;;;;;;26.95;24.15;;;17.10;66.60;;;;;;4925625;28;113318;-51
2024/03/16 10:04:09;;;;;;;28.63;25.67;;;17.00;66.30;;;;;;4924550;28;113186;-51
2024/03/16 10:06:34;;;;;;;28.02;25.08;;;17.20;66.90;;;;;;4924483;28;113674;-51
2024/03/16 10:09:10;;;;;;;26.10;23.40;;;16.90;66.80;;;;;;4925462;28;112795;-52
2024/03/16 10:11:45;;;;;;;24.23;21.88;;;17.10;66.30;;;;;;4928543;28;112628;-53
2024/03/16 10:14:11;;;;;;;24.75;22.35;;;18.10;62.40;;;;;;4932975;28;114440;-52
2024/03/16 10:16:40;;;;;;;25.50;21.80;;;19.10;59.90;;;;;;4924150;28;113055;-51
2024/03/16 10:19:09;;;;;;;22.60;20.17;;;18.90;59.70;;;;;;4943893;28;112835;-51
2024/03/16 10:21:35;;;;;;;24.23;21.75;;;19.80;56.40;;;;;;4944527;28;112843;-52
2024/03/16 10:24:00;;;;;;;27.05;24.15;;;18.90;59.20;;;;;;4943203;28;113267;-53
2024/03/16 10:26:30;;;;;;;25.83;23.17;;;18.40;61.30;;;;;;4934784;28;112722;-53
2024/03/16 10:28:59;;;;;;;26.80;23.92;;;18.20;62.10;;;;;;4933536;28;112960;-53
2024/03/16 10:31:26;;;;;;;26.15;23.73;;;18.10;61.80;;;;;;4930539;28;113189;-54
2024/03/16 10:33:54;;;;;;;25.85;23.35;;;19.00;60.00;;;;;;4933584;28;113227;-52
2024/03/16 10:36:19;;;;;;;25.77;23.17;;;19.70;59.40;;;;;;4928763;28;113751;-52
2024/03/16 10:38:46;;;;;;;26.10;23.55;;;20.20;58.20;;;;;;4933989;28;112617;-53
2024/03/16 10:41:11;;;;;;;27.88;25.00;;;20.20;57.60;;;;;;4930357;28;112766;-53
2024/03/16 10:43:38;;;;;;;27.23;24.75;;;21.00;54.20;;;;;;4931110;28;113570;-52
2024/03/16 10:46:09;;;;;;;25.98;23.35;;;21.10;54.40;;;;;;4940756;28;112887;-54
2024/03/16 10:48:38;;;;;;;28.95;26.15;;;21.60;54.60;;;;;;4937688;28;112570;-53
2024/03/16 10:51:09;;;;;;;29.20;26.23;;;22.10;52.30;;;;;;4939432;28;112763;-53
2024/03/16 10:53:36;;;;;;;31.10;28.00;;;21.70;52.70;;;;;;4937328;28;113260;-53
2024/03/16 10:56:03;;;;;;;31.45;28.38;;;21.10;54.60;;;;;;4939468;28;112797;-53
2024/03/16 10:58:30;;;;;;;33.53;30.33;;;20.90;54.20;;;;;;4941405;28;112668;-54
2024/03/16 11:01:08;;;;;;;34.67;30.98;;;20.20;56.10;;;;;;4941857;28;112994;-53
2024/03/16 11:03:39;;;;;;;33.10;30.00;;;20.40;55.80;;;;;;4941897;28;114483;-53
2024/03/16 11:06:10;;;;;;;33.70;29.65;;;20.30;55.80;;;;;;4939845;28;113722;-52
2024/03/16 11:08:41;;;;;;;33.65;30.25;;;20.00;56.10;;;;;;4935910;28;112651;-52
2024/03/16 11:11:11;;;;;;;35.60;32.08;;;20.20;56.90;;;;;;4936848;28;112730;-52
2024/03/16 11:13:36;;;;;;;35.60;31.90;;;21.40;53.40;;;;;;4949163;28;114110;-52
2024/03/16 12:10:35;;;;;;;53.88;48.78;;;23.50;46.30;;;;;;5030331;27;112544;-51
2024/03/16 12:13:06;;;;;;;52.47;47.60;;;26.70;40.30;;;;;;4993798;28;113076;-51
2024/03/16 12:15:35;;;;;;;55.22;50.15;;;27.70;38.80;;;;;;4984153;28;112690;-52
2024/03/16 12:18:05;;;;;;;56.70;51.47;;;27.70;38.70;;;;;;4982686;28;114380;-51
2024/03/16 12:20:32;;;;;;;56.83;51.53;;;26.40;40.10;;;;;;4999921;28;112823;-52
2024/03/16 12:22:58;;;;;;;54.40;49.15;;;24.40;43.60;;;;;;5003964;28;112741;-51
2024/03/16 12:25:27;;;;;;;49.53;44.80;;;25.10;44.00;;;;;;5004171;28;112675;-52
2024/03/16 12:27:53;;;;;;;52.38;47.65;;;28.10;39.60;;;;;;5002978;28;113187;-52
2024/03/16 12:30:20;;;;;;;54.92;49.80;;;31.00;34.80;;;;;;5003183;28;113598;-52
2024/03/16 12:32:47;;;;;;;53.88;48.97;;;31.60;32.90;;;;;;5003946;28;112668;-52
2024/03/16 12:35:13;;;;;;;55.55;50.17;;;30.80;33.50;;;;;;5003737;28;112725;-52
2024/03/16 12:37:39;;;;;;;53.95;48.90;;;30.10;35.10;;;;;;5002678;28;115316;-52
2024/03/16 12:40:08;;;;;;;52.88;47.75;;;28.00;37.80;;;;;;5002670;28;114110;-52
2024/03/16 12:42:34;;;;;;;56.55;51.30;;;27.20;39.40;;;;;;5003721;28;112815;-52
2024/03/16 12:45:00;;;;;;;52.25;47.58;;;25.10;41.70;;;;;;5002564;28;112939;-52
2024/03/16 12:47:26;;;;;;;52.40;47.22;;;23.90;45.50;;;;;;5002749;28;113264;-52
2024/03/16 12:49:54;;;;;;;50.95;46.05;;;24.10;45.50;;;;;;5002451;28;112809;-52
2024/03/16 12:52:23;;;;;;;52.53;47.20;;;23.90;45.40;;;;;;5003877;28;113001;-52
2024/03/16 12:54:54;;;;;;;50.78;45.88;;;23.10;46.90;;;;;;5003658;28;112792;-51
2024/03/16 12:57:19;;;;;;;50.42;45.50;;;23.30;47.00;;;;;;5002566;28;114587;-52
2024/03/16 12:59:45;;;;;;;50.05;45.17;;;22.90;47.70;;;;;;5002688;28;113015;-51
2024/03/16 13:02:11;;;;;;;51.65;46.80;;;24.00;45.80;;;;;;5003509;28;112933;-52
2024/03/16 13:04:37;;;;;;;48.50;43.75;;;24.70;43.20;;;;;;5003817;28;113141;-52
2024/03/16 13:07:03;;;;;;;50.25;45.55;;;25.40;43.70;;;;;;5002556;28;113150;-53
2024/03/16 13:09:30;;;;;;;51.05;46.15;;;26.10;40.80;;;;;;5000132;28;113990;-52
2024/03/16 13:11:56;;;;;;;50.00;45.20;;;24.10;44.70;;;;;;4989845;28;112864;-51
2024/03/16 13:14:22;;;;;;;47.90;43.20;;;23.10;46.30;;;;;;4990322;28;112638;-51
2024/03/16 13:16:48;;;;;;;47.75;43.13;;;23.20;47.40;;;;;;4988471;28;113185;-51
2024/03/16 13:19:13;;;;;;;51.30;46.17;;;24.00;45.60;;;;;;4975349;28;112547;-52
2024/03/16 13:21:40;;;;;;;49.65;44.95;;;23.60;45.80;;;;;;4990243;28;112567;-52
2024/03/16 13:24:07;;;;;;;48.70;44.10;;;24.40;44.20;;;;;;4989895;28;112704;-52